sensor_id;sensor_type;location;lat;lon;timestamp;temperature;humidity
41427;DHT22;27171;51.812;19.514;2023-02-22T00:02:49;3.70;99.90
41427;DHT22;27171;51.812;19.514;2023-02-22T00:05:56;3.70;99.90
41427;DHT22;27171;51.812;19.514;2023-02-22T00:08:58;3.70;99.90
41427;DHT22;27171;51.812;19.514;2023-02-22T00:11:59;3.70;99.90
41427;DHT22;27171;51.812;19.514;2023-02-22T00:15:00;3.60;99.90
41427;DHT22;27171;51.812;19.514;2023-02-22T00:18:03;3.60;99.90
41427;DHT22;27171;51.812;19.514;2023-02-22T00:21:05;3.60;99.90
41427;DHT22;27171;51.812;19.514;2023-02-22T00:24:06;3.60;99.90
41427;DHT22;27171;51.812;19.514;2023-02-22T00:27:07;3.60;99.90
41427;DHT22;27171;51.812;19.514;2023-02-22T00:30:14;3.60;99.90
41427;DHT22;27171;51.812;19.514;2023-02-22T00:33:15;3.60;99.90
41427;DHT22;27171;51.812;19.514;2023-02-22T00:36:17;3.60;99.90
41427;DHT22;27171;51.812;19.514;2023-02-22T00:39:18;3.50;99.90
41427;DHT22;27171;51.812;19.514;2023-02-22T00:42:22;3.50;99.90
41427;DHT22;27171;51.812;19.514;2023-02-22T00:45:25;3.60;99.90
41427;DHT22;27171;51.812;19.514;2023-02-22T00:48:27;3.60;99.90
41427;DHT22;27171;51.812;19.514;2023-02-22T00:51:28;3.60;99.90
41427;DHT22;27171;51.812;19.514;2023-02-22T00:54:29;3.60;99.90
41427;DHT22;27171;51.812;19.514;2023-02-22T00:57:32;3.60;99.90
41427;DHT22;27171;51.812;19.514;2023-02-22T01:00:38;3.70;99.90
41427;DHT22;27171;51.812;19.514;2023-02-22T01:03:41;3.60;99.90
41427;DHT22;27171;51.812;19.514;2023-02-22T01:06:42;3.70;99.90
41427;DHT22;27171;51.812;19.514;2023-02-22T01:09:43;3.60;99.90
41427;DHT22;27171;51.812;19.514;2023-02-22T01:12:45;3.70;99.90
41427;DHT22;27171;51.812;19.514;2023-02-22T01:15:46;3.60;99.90
41427;DHT22;27171;51.812;19.514;2023-02-22T01:18:47;3.60;99.90
41427;DHT22;27171;51.812;19.514;2023-02-22T01:21:49;3.60;99.90
41427;DHT22;27171;51.812;19.514;2023-02-22T01:24:50;3.60;99.90
41427;DHT22;27171;51.812;19.514;2023-02-22T01:27:52;3.60;99.90
41427;DHT22;27171;51.812;19.514;2023-02-22T01:30:53;3.60;99.90
41427;DHT22;27171;51.812;19.514;2023-02-22T01:33:54;3.70;99.90
41427;DHT22;27171;51.812;19.514;2023-02-22T01:36:56;3.60;99.90
41427;DHT22;27171;51.812;19.514;2023-02-22T01:39:57;3.60;99.90
41427;DHT22;27171;51.812;19.514;2023-02-22T01:43:01;3.70;99.90
41427;DHT22;27171;51.812;19.514;2023-02-22T01:46:28;3.60;99.90
41427;DHT22;27171;51.812;19.514;2023-02-22T01:49:44;3.70;99.90
41427;DHT22;27171;51.812;19.514;2023-02-22T01:52:45;3.70;99.90
41427;DHT22;27171;51.812;19.514;2023-02-22T01:55:47;3.70;99.90
41427;DHT22;27171;51.812;19.514;2023-02-22T01:58:53;3.70;99.90
41427;DHT22;27171;51.812;19.514;2023-02-22T02:01:55;3.70;99.90
41427;DHT22;27171;51.812;19.514;2023-02-22T02:04:58;3.70;99.90
41427;DHT22;27171;51.812;19.514;2023-02-22T02:08:09;3.70;99.90
41427;DHT22;27171;51.812;19.514;2023-02-22T02:11:10;3.70;99.90
41427;DHT22;27171;51.812;19.514;2023-02-22T02:14:12;3.70;99.90
41427;DHT22;27171;51.812;19.514;2023-02-22T02:17:21;3.70;99.90
41427;DHT22;27171;51.812;19.514;2023-02-22T02:26:54;3.70;99.90
41427;DHT22;27171;51.812;19.514;2023-02-22T02:33:28;3.70;99.90
41427;DHT22;27171;51.812;19.514;2023-02-22T02:46:23;3.70;99.90
41427;DHT22;27171;51.812;19.514;2023-02-22T02:49:36;3.70;99.90
41427;DHT22;27171;51.812;19.514;2023-02-22T02:52:40;3.60;99.90
41427;DHT22;27171;51.812;19.514;2023-02-22T02:55:42;3.60;99.90
41427;DHT22;27171;51.812;19.514;2023-02-22T02:58:48;3.60;99.90
41427;DHT22;27171;51.812;19.514;2023-02-22T03:02:02;3.60;99.90
41427;DHT22;27171;51.812;19.514;2023-02-22T03:12:12;3.60;99.90
41427;DHT22;27171;51.812;19.514;2023-02-22T03:25:02;3.60;99.90
41427;DHT22;27171;51.812;19.514;2023-02-22T03:28:09;3.50;99.90
41427;DHT22;27171;51.812;19.514;2023-02-22T03:31:16;3.50;99.90
41427;DHT22;27171;51.812;19.514;2023-02-22T03:34:23;3.60;99.90
41427;DHT22;27171;51.812;19.514;2023-02-22T03:37:33;3.50;99.90
41427;DHT22;27171;51.812;19.514;2023-02-22T03:40:38;3.50;99.90
41427;DHT22;27171;51.812;19.514;2023-02-22T03:43:45;3.50;99.90
41427;DHT22;27171;51.812;19.514;2023-02-22T03:46:50;3.60;99.90
41427;DHT22;27171;51.812;19.514;2023-02-22T03:50:17;3.50;99.90
41427;DHT22;27171;51.812;19.514;2023-02-22T03:53:20;3.50;99.90
41427;DHT22;27171;51.812;19.514;2023-02-22T03:56:36;3.50;99.90
41427;DHT22;27171;51.812;19.514;2023-02-22T03:59:40;3.50;99.90
41427;DHT22;27171;51.812;19.514;2023-02-22T04:02:41;3.50;99.90
41427;DHT22;27171;51.812;19.514;2023-02-22T04:09:29;3.50;99.90
41427;DHT22;27171;51.812;19.514;2023-02-22T04:12:31;3.50;99.90
41427;DHT22;27171;51.812;19.514;2023-02-22T04:15:36;3.50;99.90
41427;DHT22;27171;51.812;19.514;2023-02-22T04:18:40;3.50;99.90
41427;DHT22;27171;51.812;19.514;2023-02-22T04:21:41;3.50;99.90
41427;DHT22;27171;51.812;19.514;2023-02-22T04:24:49;3.50;99.90
41427;DHT22;27171;51.812;19.514;2023-02-22T04:27:52;3.60;99.90
41427;DHT22;27171;51.812;19.514;2023-02-22T04:30:58;3.60;99.90
41427;DHT22;27171;51.812;19.514;2023-02-22T04:34:00;3.60;99.90
41427;DHT22;27171;51.812;19.514;2023-02-22T04:37:05;3.50;99.90
41427;DHT22;27171;51.812;19.514;2023-02-22T04:40:07;3.50;99.90
41427;DHT22;27171;51.812;19.514;2023-02-22T04:43:10;3.50;99.90
41427;DHT22;27171;51.812;19.514;2023-02-22T04:46:12;3.50;99.90
41427;DHT22;27171;51.812;19.514;2023-02-22T04:49:14;3.50;99.90
41427;DHT22;27171;51.812;19.514;2023-02-22T04:52:17;3.40;99.90
41427;DHT22;27171;51.812;19.514;2023-02-22T04:55:18;3.40;99.90
41427;DHT22;27171;51.812;19.514;2023-02-22T04:58:19;3.40;99.90
41427;DHT22;27171;51.812;19.514;2023-02-22T05:01:22;3.30;99.90
41427;DHT22;27171;51.812;19.514;2023-02-22T05:04:23;3.30;99.90
41427;DHT22;27171;51.812;19.514;2023-02-22T05:07:24;3.30;99.90
41427;DHT22;27171;51.812;19.514;2023-02-22T05:10:25;3.20;99.90
41427;DHT22;27171;51.812;19.514;2023-02-22T05:13:26;3.20;99.90
41427;DHT22;27171;51.812;19.514;2023-02-22T05:16:27;3.10;99.90
41427;DHT22;27171;51.812;19.514;2023-02-22T05:19:28;3.00;99.90
41427;DHT22;27171;51.812;19.514;2023-02-22T05:22:29;2.90;99.90
41427;DHT22;27171;51.812;19.514;2023-02-22T05:25:30;2.90;99.90
41427;DHT22;27171;51.812;19.514;2023-02-22T05:28:31;2.80;99.90
41427;DHT22;27171;51.812;19.514;2023-02-22T05:31:32;2.70;99.90
41427;DHT22;27171;51.812;19.514;2023-02-22T05:34:34;2.70;99.90
41427;DHT22;27171;51.812;19.514;2023-02-22T05:37:34;2.60;99.90
41427;DHT22;27171;51.812;19.514;2023-02-22T05:40:35;2.60;99.90
41427;DHT22;27171;51.812;19.514;2023-02-22T05:43:37;2.50;99.90
41427;DHT22;27171;51.812;19.514;2023-02-22T05:46:39;2.50;99.90
41427;DHT22;27171;51.812;19.514;2023-02-22T05:49:40;2.50;99.90
41427;DHT22;27171;51.812;19.514;2023-02-22T05:52:41;2.40;99.90
41427;DHT22;27171;51.812;19.514;2023-02-22T05:55:42;2.40;99.90
41427;DHT22;27171;51.812;19.514;2023-02-22T05:58:43;2.40;99.90
41427;DHT22;27171;51.812;19.514;2023-02-22T06:01:44;2.30;99.90
41427;DHT22;27171;51.812;19.514;2023-02-22T06:04:46;2.30;99.90
41427;DHT22;27171;51.812;19.514;2023-02-22T06:07:47;2.30;99.90
41427;DHT22;27171;51.812;19.514;2023-02-22T06:10:48;2.30;99.90
41427;DHT22;27171;51.812;19.514;2023-02-22T06:13:50;2.30;99.90
41427;DHT22;27171;51.812;19.514;2023-02-22T06:16:52;2.40;99.90
41427;DHT22;27171;51.812;19.514;2023-02-22T06:19:53;2.40;99.90
41427;DHT22;27171;51.812;19.514;2023-02-22T06:22:54;2.40;99.90
41427;DHT22;27171;51.812;19.514;2023-02-22T06:25:56;2.40;99.90
41427;DHT22;27171;51.812;19.514;2023-02-22T06:28:57;2.40;99.90
41427;DHT22;27171;51.812;19.514;2023-02-22T06:31:58;2.50;99.90
41427;DHT22;27171;51.812;19.514;2023-02-22T06:34:59;2.50;99.90
41427;DHT22;27171;51.812;19.514;2023-02-22T06:38:00;2.50;99.90
41427;DHT22;27171;51.812;19.514;2023-02-22T06:41:01;2.50;99.90
41427;DHT22;27171;51.812;19.514;2023-02-22T06:44:03;2.50;99.90
41427;DHT22;27171;51.812;19.514;2023-02-22T06:47:04;2.50;99.90
41427;DHT22;27171;51.812;19.514;2023-02-22T06:50:05;2.60;99.90
41427;DHT22;27171;51.812;19.514;2023-02-22T06:53:06;2.60;99.90
41427;DHT22;27171;51.812;19.514;2023-02-22T06:56:07;2.60;99.90
41427;DHT22;27171;51.812;19.514;2023-02-22T06:59:08;2.70;99.90
41427;DHT22;27171;51.812;19.514;2023-02-22T07:02:12;2.70;99.90
41427;DHT22;27171;51.812;19.514;2023-02-22T07:05:15;2.70;99.90
41427;DHT22;27171;51.812;19.514;2023-02-22T07:08:16;2.80;99.90
41427;DHT22;27171;51.812;19.514;2023-02-22T07:11:17;2.90;99.90
41427;DHT22;27171;51.812;19.514;2023-02-22T07:14:18;2.90;99.90
41427;DHT22;27171;51.812;19.514;2023-02-22T07:17:20;3.00;99.90
41427;DHT22;27171;51.812;19.514;2023-02-22T07:20:22;3.10;99.90
41427;DHT22;27171;51.812;19.514;2023-02-22T07:23:23;3.20;99.90
41427;DHT22;27171;51.812;19.514;2023-02-22T07:26:25;3.20;99.90
41427;DHT22;27171;51.812;19.514;2023-02-22T07:29:26;3.20;99.90
41427;DHT22;27171;51.812;19.514;2023-02-22T07:32:27;3.30;99.90
41427;DHT22;27171;51.812;19.514;2023-02-22T07:35:31;3.30;99.90
41427;DHT22;27171;51.812;19.514;2023-02-22T07:38:32;3.40;99.90
41427;DHT22;27171;51.812;19.514;2023-02-22T07:41:33;3.50;99.90
41427;DHT22;27171;51.812;19.514;2023-02-22T07:44:34;3.50;99.90
41427;DHT22;27171;51.812;19.514;2023-02-22T07:47:35;3.60;99.90
41427;DHT22;27171;51.812;19.514;2023-02-22T07:50:36;3.60;99.90
41427;DHT22;27171;51.812;19.514;2023-02-22T07:53:37;3.70;99.90
41427;DHT22;27171;51.812;19.514;2023-02-22T07:56:44;3.80;99.90
41427;DHT22;27171;51.812;19.514;2023-02-22T07:59:45;3.90;99.90
41427;DHT22;27171;51.812;19.514;2023-02-22T08:02:46;3.90;99.90
41427;DHT22;27171;51.812;19.514;2023-02-22T08:05:50;4.00;99.90
41427;DHT22;27171;51.812;19.514;2023-02-22T08:08:51;4.00;99.90
41427;DHT22;27171;51.812;19.514;2023-02-22T08:11:53;4.10;99.90
41427;DHT22;27171;51.812;19.514;2023-02-22T08:14:53;4.10;99.90
41427;DHT22;27171;51.812;19.514;2023-02-22T08:17:56;4.10;99.90
41427;DHT22;27171;51.812;19.514;2023-02-22T08:20:57;4.10;99.90
41427;DHT22;27171;51.812;19.514;2023-02-22T08:23:58;4.10;99.90
41427;DHT22;27171;51.812;19.514;2023-02-22T08:26:59;4.20;99.90
41427;DHT22;27171;51.812;19.514;2023-02-22T08:30:00;4.20;99.90
41427;DHT22;27171;51.812;19.514;2023-02-22T08:33:02;4.20;99.90
41427;DHT22;27171;51.812;19.514;2023-02-22T08:36:04;4.30;99.90
41427;DHT22;27171;51.812;19.514;2023-02-22T08:39:05;4.30;99.90
41427;DHT22;27171;51.812;19.514;2023-02-22T08:42:06;4.40;99.90
41427;DHT22;27171;51.812;19.514;2023-02-22T08:45:07;4.50;99.90
41427;DHT22;27171;51.812;19.514;2023-02-22T08:48:09;4.50;99.90
41427;DHT22;27171;51.812;19.514;2023-02-22T08:51:09;4.60;99.90
41427;DHT22;27171;51.812;19.514;2023-02-22T08:54:11;4.60;99.90
41427;DHT22;27171;51.812;19.514;2023-02-22T08:57:12;4.60;99.90
41427;DHT22;27171;51.812;19.514;2023-02-22T09:00:14;4.60;99.90
41427;DHT22;27171;51.812;19.514;2023-02-22T09:03:15;4.70;99.90
41427;DHT22;27171;51.812;19.514;2023-02-22T09:06:17;4.80;99.90
41427;DHT22;27171;51.812;19.514;2023-02-22T09:09:19;4.90;99.90
41427;DHT22;27171;51.812;19.514;2023-02-22T09:12:20;4.90;99.90
41427;DHT22;27171;51.812;19.514;2023-02-22T09:15:23;4.90;99.90
41427;DHT22;27171;51.812;19.514;2023-02-22T09:18:26;5.00;99.90
41427;DHT22;27171;51.812;19.514;2023-02-22T09:21:29;5.00;99.90
41427;DHT22;27171;51.812;19.514;2023-02-22T09:24:30;5.00;99.90
41427;DHT22;27171;51.812;19.514;2023-02-22T09:27:31;5.00;99.90
41427;DHT22;27171;51.812;19.514;2023-02-22T09:30:34;5.00;99.90
41427;DHT22;27171;51.812;19.514;2023-02-22T09:33:35;5.10;99.90
41427;DHT22;27171;51.812;19.514;2023-02-22T09:36:36;5.10;99.90
41427;DHT22;27171;51.812;19.514;2023-02-22T09:39:38;5.10;99.90
41427;DHT22;27171;51.812;19.514;2023-02-22T09:43:00;5.20;99.90
41427;DHT22;27171;51.812;19.514;2023-02-22T09:49:50;5.20;99.90
41427;DHT22;27171;51.812;19.514;2023-02-22T09:53:18;5.30;99.90
41427;DHT22;27171;51.812;19.514;2023-02-22T09:56:23;5.30;99.90
41427;DHT22;27171;51.812;19.514;2023-02-22T09:59:30;5.30;99.90
41427;DHT22;27171;51.812;19.514;2023-02-22T10:02:36;5.30;99.90
41427;DHT22;27171;51.812;19.514;2023-02-22T10:05:44;5.40;99.90
41427;DHT22;27171;51.812;19.514;2023-02-22T10:08:51;5.50;99.90
41427;DHT22;27171;51.812;19.514;2023-02-22T10:12:46;5.60;99.90
41427;DHT22;27171;51.812;19.514;2023-02-22T10:18:58;5.70;99.90
41427;DHT22;27171;51.812;19.514;2023-02-22T10:22:17;5.70;99.90
41427;DHT22;27171;51.812;19.514;2023-02-22T10:25:23;5.70;99.90
41427;DHT22;27171;51.812;19.514;2023-02-22T10:28:30;5.80;99.90
41427;DHT22;27171;51.812;19.514;2023-02-22T10:31:38;5.70;99.90
41427;DHT22;27171;51.812;19.514;2023-02-22T10:34:46;5.70;99.90
41427;DHT22;27171;51.812;19.514;2023-02-22T10:37:51;5.60;99.90
41427;DHT22;27171;51.812;19.514;2023-02-22T10:44:10;5.60;99.90
41427;DHT22;27171;51.812;19.514;2023-02-22T10:50:17;5.60;99.90
41427;DHT22;27171;51.812;19.514;2023-02-22T10:53:20;5.60;99.90
41427;DHT22;27171;51.812;19.514;2023-02-22T10:56:22;5.60;99.90
41427;DHT22;27171;51.812;19.514;2023-02-22T10:59:31;5.70;99.90
41427;DHT22;27171;51.812;19.514;2023-02-22T11:02:34;5.70;99.90
41427;DHT22;27171;51.812;19.514;2023-02-22T11:05:37;5.70;99.90
41427;DHT22;27171;51.812;19.514;2023-02-22T11:08:39;5.80;99.90
41427;DHT22;27171;51.812;19.514;2023-02-22T11:11:41;5.80;99.90
41427;DHT22;27171;51.812;19.514;2023-02-22T11:14:42;5.80;99.90
41427;DHT22;27171;51.812;19.514;2023-02-22T11:17:44;5.80;99.90
41427;DHT22;27171;51.812;19.514;2023-02-22T11:20:45;5.90;99.90
41427;DHT22;27171;51.812;19.514;2023-02-22T11:23:47;5.90;99.90
41427;DHT22;27171;51.812;19.514;2023-02-22T11:26:55;5.90;99.90
41427;DHT22;27171;51.812;19.514;2023-02-22T11:33:25;5.80;99.90
41427;DHT22;27171;51.812;19.514;2023-02-22T11:36:41;5.80;99.90
41427;DHT22;27171;51.812;19.514;2023-02-22T11:39:43;5.70;99.90
41427;DHT22;27171;51.812;19.514;2023-02-22T11:42:45;5.60;99.90
41427;DHT22;27171;51.812;19.514;2023-02-22T11:46:04;5.60;99.90
41427;DHT22;27171;51.812;19.514;2023-02-22T11:49:09;5.60;99.90
41427;DHT22;27171;51.812;19.514;2023-02-22T11:52:23;5.50;99.90
41427;DHT22;27171;51.812;19.514;2023-02-22T12:02:41;5.50;99.90
41427;DHT22;27171;51.812;19.514;2023-02-22T12:15:45;5.50;99.90
41427;DHT22;27171;51.812;19.514;2023-02-22T12:18:59;5.50;99.90
41427;DHT22;27171;51.812;19.514;2023-02-22T12:22:21;5.40;99.90
41427;DHT22;27171;51.812;19.514;2023-02-22T12:25:34;5.40;99.90
41427;DHT22;27171;51.812;19.514;2023-02-22T12:28:50;5.40;99.90
41427;DHT22;27171;51.812;19.514;2023-02-22T12:35:15;5.30;99.90
41427;DHT22;27171;51.812;19.514;2023-02-22T12:38:39;5.40;99.90
41427;DHT22;27171;51.812;19.514;2023-02-22T12:41:44;5.30;99.90
41427;DHT22;27171;51.812;19.514;2023-02-22T12:44:55;5.40;99.90
41427;DHT22;27171;51.812;19.514;2023-02-22T12:58:19;5.30;99.90
41427;DHT22;27171;51.812;19.514;2023-02-22T13:01:26;5.30;99.90
41427;DHT22;27171;51.812;19.514;2023-02-22T13:04:28;5.30;99.90
41427;DHT22;27171;51.812;19.514;2023-02-22T13:11:00;5.30;99.90
41427;DHT22;27171;51.812;19.514;2023-02-22T13:17:47;5.20;99.90
41427;DHT22;27171;51.812;19.514;2023-02-22T13:20:58;5.20;99.90
41427;DHT22;27171;51.812;19.514;2023-02-22T13:27:23;5.10;99.90
41427;DHT22;27171;51.812;19.514;2023-02-22T13:47:32;5.10;99.90
41427;DHT22;27171;51.812;19.514;2023-02-22T13:53:54;5.00;99.90
41427;DHT22;27171;51.812;19.514;2023-02-22T13:56:56;5.00;99.90
41427;DHT22;27171;51.812;19.514;2023-02-22T14:03:31;5.10;99.90
41427;DHT22;27171;51.812;19.514;2023-02-22T14:06:38;5.10;99.90
41427;DHT22;27171;51.812;19.514;2023-02-22T14:09:50;5.10;99.90
41427;DHT22;27171;51.812;19.514;2023-02-22T14:12:52;5.10;99.90
41427;DHT22;27171;51.812;19.514;2023-02-22T14:22:09;5.00;99.90
41427;DHT22;27171;51.812;19.514;2023-02-22T14:29:18;4.90;99.90
41427;DHT22;27171;51.812;19.514;2023-02-22T14:32:12;4.90;99.90
41427;DHT22;27171;51.812;19.514;2023-02-22T14:35:15;4.90;99.90
41427;DHT22;27171;51.812;19.514;2023-02-22T14:38:18;4.80;99.90
41427;DHT22;27171;51.812;19.514;2023-02-22T14:41:26;4.70;99.90
41427;DHT22;27171;51.812;19.514;2023-02-22T14:44:37;4.70;99.90
41427;DHT22;27171;51.812;19.514;2023-02-22T14:50:57;4.60;99.90
41427;DHT22;27171;51.812;19.514;2023-02-22T15:03:42;4.50;99.90
41427;DHT22;27171;51.812;19.514;2023-02-22T15:06:43;4.50;99.90
41427;DHT22;27171;51.812;19.514;2023-02-22T15:09:44;4.40;99.90
41427;DHT22;27171;51.812;19.514;2023-02-22T15:16:04;4.30;99.90
41427;DHT22;27171;51.812;19.514;2023-02-22T15:19:05;4.20;99.90
41427;DHT22;27171;51.812;19.514;2023-02-22T15:22:31;4.20;99.90
41427;DHT22;27171;51.812;19.514;2023-02-22T15:25:34;4.20;99.90
41427;DHT22;27171;51.812;19.514;2023-02-22T15:28:35;4.10;99.90
41427;DHT22;27171;51.812;19.514;2023-02-22T15:31:37;4.10;99.90
41427;DHT22;27171;51.812;19.514;2023-02-22T15:34:38;4.00;99.90
41427;DHT22;27171;51.812;19.514;2023-02-22T15:37:39;4.00;99.90
41427;DHT22;27171;51.812;19.514;2023-02-22T15:40:40;4.00;99.90
41427;DHT22;27171;51.812;19.514;2023-02-22T15:43:41;3.90;99.90
41427;DHT22;27171;51.812;19.514;2023-02-22T15:46:42;3.90;99.90
41427;DHT22;27171;51.812;19.514;2023-02-22T15:49:44;3.90;99.90
41427;DHT22;27171;51.812;19.514;2023-02-22T15:53:00;3.90;99.90
41427;DHT22;27171;51.812;19.514;2023-02-22T15:56:05;3.80;99.90
41427;DHT22;27171;51.812;19.514;2023-02-22T15:59:11;3.80;99.90
41427;DHT22;27171;51.812;19.514;2023-02-22T16:02:39;3.70;99.90
41427;DHT22;27171;51.812;19.514;2023-02-22T16:05:46;3.60;99.90
41427;DHT22;27171;51.812;19.514;2023-02-22T16:08:50;3.50;99.90
41427;DHT22;27171;51.812;19.514;2023-02-22T16:15:15;3.30;99.90
41427;DHT22;27171;51.812;19.514;2023-02-22T16:18:29;3.20;99.90
41427;DHT22;27171;51.812;19.514;2023-02-22T16:21:53;3.00;99.90
41427;DHT22;27171;51.812;19.514;2023-02-22T16:28:27;2.80;99.90
41427;DHT22;27171;51.812;19.514;2023-02-22T16:31:31;2.80;99.90
41427;DHT22;27171;51.812;19.514;2023-02-22T16:34:33;2.70;99.90
41427;DHT22;27171;51.812;19.514;2023-02-22T16:37:34;2.70;99.90
41427;DHT22;27171;51.812;19.514;2023-02-22T16:40:44;2.60;99.90
41427;DHT22;27171;51.812;19.514;2023-02-22T16:43:48;2.50;99.90
41427;DHT22;27171;51.812;19.514;2023-02-22T16:46:50;2.50;99.90
41427;DHT22;27171;51.812;19.514;2023-02-22T16:49:52;2.50;99.90
41427;DHT22;27171;51.812;19.514;2023-02-22T16:52:55;2.40;99.90
41427;DHT22;27171;51.812;19.514;2023-02-22T16:56:03;2.40;99.90
41427;DHT22;27171;51.812;19.514;2023-02-22T16:59:12;2.40;99.90
41427;DHT22;27171;51.812;19.514;2023-02-22T17:02:14;2.30;99.90
41427;DHT22;27171;51.812;19.514;2023-02-22T17:05:16;2.30;99.90
41427;DHT22;27171;51.812;19.514;2023-02-22T17:08:19;2.20;99.90
41427;DHT22;27171;51.812;19.514;2023-02-22T17:11:21;2.20;99.90
41427;DHT22;27171;51.812;19.514;2023-02-22T17:14:26;2.10;99.90
41427;DHT22;27171;51.812;19.514;2023-02-22T17:17:30;2.10;99.90
41427;DHT22;27171;51.812;19.514;2023-02-22T17:20:31;2.00;99.90
41427;DHT22;27171;51.812;19.514;2023-02-22T17:23:33;2.00;99.90
41427;DHT22;27171;51.812;19.514;2023-02-22T17:26:34;1.90;99.90
41427;DHT22;27171;51.812;19.514;2023-02-22T17:29:35;1.90;99.90
41427;DHT22;27171;51.812;19.514;2023-02-22T17:32:36;1.80;99.90
41427;DHT22;27171;51.812;19.514;2023-02-22T17:35:37;1.70;99.90
41427;DHT22;27171;51.812;19.514;2023-02-22T17:38:39;1.70;99.90
41427;DHT22;27171;51.812;19.514;2023-02-22T17:41:40;1.60;99.90
41427;DHT22;27171;51.812;19.514;2023-02-22T17:44:41;1.60;99.90
41427;DHT22;27171;51.812;19.514;2023-02-22T17:47:42;1.50;99.90
41427;DHT22;27171;51.812;19.514;2023-02-22T17:50:44;1.50;99.90
41427;DHT22;27171;51.812;19.514;2023-02-22T17:53:45;1.40;99.90
41427;DHT22;27171;51.812;19.514;2023-02-22T17:56:46;1.30;99.90
41427;DHT22;27171;51.812;19.514;2023-02-22T17:59:47;1.30;99.90
41427;DHT22;27171;51.812;19.514;2023-02-22T18:02:49;1.20;99.90
41427;DHT22;27171;51.812;19.514;2023-02-22T18:05:53;1.20;99.90
41427;DHT22;27171;51.812;19.514;2023-02-22T18:08:56;1.10;99.90
41427;DHT22;27171;51.812;19.514;2023-02-22T18:11:58;1.10;99.90
41427;DHT22;27171;51.812;19.514;2023-02-22T18:14:59;1.00;99.90
41427;DHT22;27171;51.812;19.514;2023-02-22T18:18:00;1.00;99.90
41427;DHT22;27171;51.812;19.514;2023-02-22T18:21:02;1.00;99.90
41427;DHT22;27171;51.812;19.514;2023-02-22T18:24:04;0.90;99.90
41427;DHT22;27171;51.812;19.514;2023-02-22T18:27:05;0.90;99.90
41427;DHT22;27171;51.812;19.514;2023-02-22T18:30:06;0.90;99.90
41427;DHT22;27171;51.812;19.514;2023-02-22T18:33:07;0.80;99.90
41427;DHT22;27171;51.812;19.514;2023-02-22T18:36:09;0.70;99.90
41427;DHT22;27171;51.812;19.514;2023-02-22T18:39:10;0.70;99.90
41427;DHT22;27171;51.812;19.514;2023-02-22T18:42:11;0.70;99.90
41427;DHT22;27171;51.812;19.514;2023-02-22T18:45:12;0.60;99.90
41427;DHT22;27171;51.812;19.514;2023-02-22T18:48:14;0.60;99.90
41427;DHT22;27171;51.812;19.514;2023-02-22T18:51:16;0.60;99.90
41427;DHT22;27171;51.812;19.514;2023-02-22T18:54:17;0.60;99.90
41427;DHT22;27171;51.812;19.514;2023-02-22T18:57:18;0.60;99.90
41427;DHT22;27171;51.812;19.514;2023-02-22T19:00:20;0.60;99.90
41427;DHT22;27171;51.812;19.514;2023-02-22T19:03:21;0.50;99.90
41427;DHT22;27171;51.812;19.514;2023-02-22T19:06:22;0.50;99.90
41427;DHT22;27171;51.812;19.514;2023-02-22T19:09:23;0.50;99.90
41427;DHT22;27171;51.812;19.514;2023-02-22T19:12:24;0.50;99.90
41427;DHT22;27171;51.812;19.514;2023-02-22T19:15:26;0.50;99.90
41427;DHT22;27171;51.812;19.514;2023-02-22T19:18:27;0.50;99.90
41427;DHT22;27171;51.812;19.514;2023-02-22T19:21:30;0.50;99.90
41427;DHT22;27171;51.812;19.514;2023-02-22T19:24:35;0.50;99.90
41427;DHT22;27171;51.812;19.514;2023-02-22T19:27:36;0.50;99.90
41427;DHT22;27171;51.812;19.514;2023-02-22T19:30:39;0.40;99.90
41427;DHT22;27171;51.812;19.514;2023-02-22T19:33:41;0.50;99.90
41427;DHT22;27171;51.812;19.514;2023-02-22T19:36:43;0.40;99.90
41427;DHT22;27171;51.812;19.514;2023-02-22T19:39:44;0.40;99.90
41427;DHT22;27171;51.812;19.514;2023-02-22T19:42:45;0.40;99.90
41427;DHT22;27171;51.812;19.514;2023-02-22T19:45:46;0.40;99.90
41427;DHT22;27171;51.812;19.514;2023-02-22T19:48:47;0.40;99.90
41427;DHT22;27171;51.812;19.514;2023-02-22T19:51:49;0.40;99.90
41427;DHT22;27171;51.812;19.514;2023-02-22T19:54:50;0.40;99.90
41427;DHT22;27171;51.812;19.514;2023-02-22T19:57:52;0.40;99.90
41427;DHT22;27171;51.812;19.514;2023-02-22T20:00:53;0.40;99.90
41427;DHT22;27171;51.812;19.514;2023-02-22T20:04:00;0.40;99.90
41427;DHT22;27171;51.812;19.514;2023-02-22T20:07:01;0.40;99.90
41427;DHT22;27171;51.812;19.514;2023-02-22T20:10:03;0.50;99.90
41427;DHT22;27171;51.812;19.514;2023-02-22T20:13:06;0.50;99.90
41427;DHT22;27171;51.812;19.514;2023-02-22T20:16:10;0.40;99.90
41427;DHT22;27171;51.812;19.514;2023-02-22T20:19:11;0.50;99.90
41427;DHT22;27171;51.812;19.514;2023-02-22T20:22:13;0.50;99.90
41427;DHT22;27171;51.812;19.514;2023-02-22T20:25:15;0.40;99.90
41427;DHT22;27171;51.812;19.514;2023-02-22T20:28:18;0.50;99.90
41427;DHT22;27171;51.812;19.514;2023-02-22T20:31:21;0.50;99.90
41427;DHT22;27171;51.812;19.514;2023-02-22T20:34:23;0.50;99.90
41427;DHT22;27171;51.812;19.514;2023-02-22T20:37:24;0.50;99.90
41427;DHT22;27171;51.812;19.514;2023-02-22T20:40:26;0.50;99.90
41427;DHT22;27171;51.812;19.514;2023-02-22T20:43:27;0.50;99.90
41427;DHT22;27171;51.812;19.514;2023-02-22T20:46:29;0.40;99.90
41427;DHT22;27171;51.812;19.514;2023-02-22T20:49:31;0.50;99.90
41427;DHT22;27171;51.812;19.514;2023-02-22T20:52:32;0.50;99.90
41427;DHT22;27171;51.812;19.514;2023-02-22T20:55:33;0.50;99.90
41427;DHT22;27171;51.812;19.514;2023-02-22T20:58:34;0.50;99.90
41427;DHT22;27171;51.812;19.514;2023-02-22T21:01:36;0.50;99.90
41427;DHT22;27171;51.812;19.514;2023-02-22T21:04:37;0.50;99.90
41427;DHT22;27171;51.812;19.514;2023-02-22T21:07:41;0.50;99.90
41427;DHT22;27171;51.812;19.514;2023-02-22T21:10:43;0.50;99.90
41427;DHT22;27171;51.812;19.514;2023-02-22T21:13:45;0.40;99.90
41427;DHT22;27171;51.812;19.514;2023-02-22T21:16:48;0.40;99.90
41427;DHT22;27171;51.812;19.514;2023-02-22T21:19:49;0.40;99.90
41427;DHT22;27171;51.812;19.514;2023-02-22T21:22:51;0.30;99.90
41427;DHT22;27171;51.812;19.514;2023-02-22T21:25:52;0.30;99.90
41427;DHT22;27171;51.812;19.514;2023-02-22T21:28:54;0.30;99.90
41427;DHT22;27171;51.812;19.514;2023-02-22T21:31:55;0.20;99.90
41427;DHT22;27171;51.812;19.514;2023-02-22T21:34:56;0.20;99.90
41427;DHT22;27171;51.812;19.514;2023-02-22T21:37:57;0.20;99.90
41427;DHT22;27171;51.812;19.514;2023-02-22T21:40:58;0.10;99.90
41427;DHT22;27171;51.812;19.514;2023-02-22T21:43:59;0.10;99.90
41427;DHT22;27171;51.812;19.514;2023-02-22T21:47:00;0.00;99.90
41427;DHT22;27171;51.812;19.514;2023-02-22T21:50:01;0.00;99.90
41427;DHT22;27171;51.812;19.514;2023-02-22T21:53:02;-0.10;99.90
41427;DHT22;27171;51.812;19.514;2023-02-22T21:56:03;-0.10;99.90